Time;durP1;ratioP1;P1;durP2;ratioP2;P2;SDS_P1;SDS_P2;PMS_P1;PMS_P2;Temp;Humidity;BMP_temperature;BMP_pressure;BME280_temperature;BME280_humidity;BME280_pressure;Samples;Min_cycle;Max_cycle;Signal;HPM_P1;HPM_P2
2021/11/18 00:00:33;;;;;;;13.20;10.70;;;8.90;99.90;;;;;;5036151;28;20295;-71
2021/11/18 00:03:00;;;;;;;13.30;10.43;;;9.00;99.90;;;;;;5036372;28;20212;-70
2021/11/18 00:05:27;;;;;;;12.68;10.50;;;9.00;99.90;;;;;;5035587;28;20640;-70
2021/11/18 00:07:55;;;;;;;11.35;10.20;;;9.00;99.90;;;;;;5035645;28;20226;-70
2021/11/18 00:10:24;;;;;;;11.40;9.57;;;9.00;99.90;;;;;;5035696;28;20220;-72
2021/11/18 00:12:53;;;;;;;10.93;9.25;;;9.00;99.90;;;;;;5035455;28;20294;-70
2021/11/18 00:15:23;;;;;;;11.35;9.60;;;9.00;99.90;;;;;;5035694;28;20212;-71
2021/11/18 00:17:50;;;;;;;12.27;10.20;;;9.00;99.90;;;;;;5036614;28;20236;-71
2021/11/18 00:20:19;;;;;;;12.13;10.18;;;8.90;99.90;;;;;;5037239;28;20204;-70
2021/11/18 00:22:46;;;;;;;12.55;11.02;;;8.90;99.90;;;;;;5037838;28;20659;-71
2021/11/18 00:25:15;;;;;;;15.43;11.55;;;8.80;99.90;;;;;;5037629;28;20211;-71
2021/11/18 00:27:42;;;;;;;14.23;11.10;;;8.70;99.90;;;;;;5038217;28;20216;-71
2021/11/18 00:30:12;;;;;;;11.77;10.50;;;8.60;99.90;;;;;;5037543;28;20295;-71
2021/11/18 00:32:40;;;;;;;14.82;11.15;;;8.50;99.90;;;;;;5037840;28;20215;-71
2021/11/18 00:35:09;;;;;;;15.25;11.02;;;8.40;99.90;;;;;;5037856;28;20295;-71
2021/11/18 00:37:37;;;;;;;15.95;11.32;;;8.20;99.90;;;;;;5038045;28;20235;-71
2021/11/18 00:40:05;;;;;;;14.20;10.65;;;8.20;99.90;;;;;;5038259;28;20200;-70
2021/11/18 00:42:32;;;;;;;14.35;10.90;;;8.20;99.90;;;;;;5037987;28;20204;-71
2021/11/18 00:45:00;;;;;;;14.25;11.02;;;8.20;99.90;;;;;;5037713;28;20204;-71
2021/11/18 00:47:28;;;;;;;13.70;11.45;;;8.30;99.90;;;;;;5037866;28;20640;-71
2021/11/18 00:49:55;;;;;;;15.15;11.88;;;8.20;99.90;;;;;;5037522;28;20204;-71
2021/11/18 00:52:22;;;;;;;13.70;11.98;;;8.20;99.90;;;;;;5037680;28;20203;-70
2021/11/18 00:54:49;;;;;;;14.73;11.32;;;8.10;99.90;;;;;;5037023;28;20208;-71
2021/11/18 00:57:16;;;;;;;13.20;10.50;;;8.20;99.90;;;;;;5037241;28;20252;-71
2021/11/18 00:59:45;;;;;;;13.10;10.60;;;8.20;99.90;;;;;;5037481;28;20204;-72
2021/11/18 01:02:12;;;;;;;13.63;10.70;;;8.30;99.90;;;;;;5037260;28;20204;-72
2021/11/18 01:04:41;;;;;;;12.93;9.88;;;8.30;99.90;;;;;;5036110;28;20626;-72
2021/11/18 01:07:08;;;;;;;10.60;9.23;;;8.40;99.90;;;;;;5037618;28;20208;-71
2021/11/18 01:09:36;;;;;;;11.68;9.55;;;8.40;99.90;;;;;;5037905;28;20299;-71
2021/11/18 01:12:03;;;;;;;10.80;9.70;;;8.50;99.90;;;;;;5037455;28;20210;-70
2021/11/18 01:14:30;;;;;;;13.35;10.45;;;8.60;99.90;;;;;;5037092;28;20210;-71
2021/11/18 01:16:57;;;;;;;12.65;10.13;;;8.50;99.90;;;;;;5036642;28;20212;-71
2021/11/18 01:19:24;;;;;;;11.65;9.98;;;8.60;99.90;;;;;;5037032;28;20315;-71
2021/11/18 01:21:52;;;;;;;10.90;9.40;;;8.60;99.90;;;;;;5036792;28;20210;-71
2021/11/18 01:24:20;;;;;;;11.32;9.98;;;8.60;99.90;;;;;;5037146;28;20204;-71
2021/11/18 01:26:48;;;;;;;11.18;9.77;;;8.60;99.90;;;;;;5036923;28;20253;-70
2021/11/18 01:29:14;;;;;;;10.65;9.15;;;8.60;99.90;;;;;;5036928;28;20278;-71
2021/11/18 01:31:41;;;;;;;11.07;9.85;;;8.60;99.90;;;;;;5036984;28;20211;-71
2021/11/18 01:34:08;;;;;;;10.68;9.18;;;8.60;99.90;;;;;;5036936;28;20290;-71
2021/11/18 01:36:36;;;;;;;11.98;10.30;;;8.60;99.90;;;;;;5036607;28;20300;-71
2021/11/18 01:39:06;;;;;;;10.18;8.55;;;8.70;99.90;;;;;;5036561;28;20238;-72
2021/11/18 01:41:34;;;;;;;10.35;8.43;;;8.80;99.90;;;;;;5036682;28;20650;-71
2021/11/18 01:44:04;;;;;;;10.55;8.75;;;8.90;99.90;;;;;;5036256;28;20234;-72
2021/11/18 01:46:34;;;;;;;10.57;8.70;;;8.90;99.90;;;;;;5036096;28;20214;-71
2021/11/18 01:49:02;;;;;;;10.73;9.07;;;8.80;99.90;;;;;;5036094;28;20730;-71
2021/11/18 01:51:33;;;;;;;10.48;8.90;;;8.70;99.90;;;;;;5036242;28;20204;-71
2021/11/18 01:54:01;;;;;;;9.85;8.85;;;8.70;99.90;;;;;;5036572;28;20680;-71
2021/11/18 01:56:31;;;;;;;10.05;9.05;;;8.70;99.90;;;;;;5035531;28;20204;-72
2021/11/18 01:59:01;;;;;;;10.77;8.65;;;8.70;99.90;;;;;;5035792;28;20691;-71
2021/11/18 02:01:27;;;;;;;11.40;9.00;;;8.60;99.90;;;;;;5035922;28;20295;-70
2021/11/18 02:03:54;;;;;;;12.02;9.80;;;8.60;99.90;;;;;;5035768;28;20215;-70
2021/11/18 02:06:24;;;;;;;11.57;9.77;;;8.60;99.90;;;;;;5035486;28;20295;-70
2021/11/18 02:08:52;;;;;;;14.43;10.45;;;8.50;99.90;;;;;;5035914;28;20312;-71
2021/11/18 02:11:27;;;;;;;12.70;10.18;;;8.50;99.90;;;;;;5036118;28;20204;-71
2021/11/18 02:13:56;;;;;;;12.52;9.90;;;8.40;99.90;;;;;;5035760;28;20204;-70
2021/11/18 02:16:23;;;;;;;11.38;10.18;;;8.30;99.90;;;;;;5035400;28;20299;-71
2021/11/18 02:18:51;;;;;;;13.82;10.13;;;8.20;99.90;;;;;;5034874;28;20232;-71
2021/11/18 02:21:20;;;;;;;11.68;9.95;;;8.20;99.90;;;;;;5035028;28;20200;-71
2021/11/18 02:23:49;;;;;;;13.18;9.77;;;8.20;99.90;;;;;;5035614;28;20570;-71
2021/11/18 02:26:18;;;;;;;12.30;9.57;;;8.30;99.90;;;;;;5035374;28;20298;-71
2021/11/18 02:28:47;;;;;;;12.05;9.75;;;8.40;99.90;;;;;;5035551;28;20220;-71
2021/11/18 02:31:18;;;;;;;12.35;9.88;;;8.40;99.90;;;;;;5035396;28;20208;-72
2021/11/18 02:33:45;;;;;;;12.00;9.98;;;8.40;99.90;;;;;;5035208;28;20666;-71
2021/11/18 02:36:12;;;;;;;12.23;9.27;;;8.30;99.90;;;;;;5035132;28;20761;-70
2021/11/18 02:38:40;;;;;;;11.40;9.13;;;8.30;99.90;;;;;;5035683;28;20236;-71
2021/11/18 02:41:10;;;;;;;11.82;9.50;;;8.40;99.90;;;;;;5035346;28;20208;-71
2021/11/18 02:43:37;;;;;;;12.98;9.88;;;8.50;99.90;;;;;;5035472;28;20208;-72
2021/11/18 02:46:04;;;;;;;11.60;9.30;;;8.50;99.90;;;;;;5034644;28;20208;-71
2021/11/18 02:48:32;;;;;;;14.52;10.35;;;8.40;99.90;;;;;;5033902;28;20242;-71
2021/11/18 02:51:02;;;;;;;12.10;9.82;;;8.20;99.90;;;;;;5034506;28;20204;-71
2021/11/18 02:53:30;;;;;;;11.43;9.82;;;8.20;99.90;;;;;;5034803;28;20568;-71
2021/11/18 02:55:59;;;;;;;12.32;9.50;;;8.20;99.90;;;;;;5034859;28;20212;-72
2021/11/18 02:58:27;;;;;;;12.25;9.68;;;8.20;99.90;;;;;;5035195;28;20230;-71
2021/11/18 03:00:58;;;;;;;10.65;8.80;;;8.30;99.90;;;;;;5035196;28;20294;-71
2021/11/18 03:03:25;;;;;;;11.60;9.27;;;8.30;99.90;;;;;;5035585;28;20208;-71
2021/11/18 03:05:53;;;;;;;11.98;9.15;;;8.50;99.90;;;;;;5034920;28;20259;-71
2021/11/18 03:08:22;;;;;;;10.88;9.15;;;8.60;99.90;;;;;;5034918;28;20221;-71
2021/11/18 03:10:49;;;;;;;10.73;8.73;;;8.80;99.90;;;;;;5035146;28;20204;-70
2021/11/18 03:13:19;;;;;;;13.40;9.60;;;8.80;99.90;;;;;;5034898;28;20206;-72
2021/11/18 03:15:46;;;;;;;11.05;9.57;;;8.90;99.90;;;;;;5034608;28;20216;-72
2021/11/18 03:18:13;;;;;;;10.20;9.10;;;8.90;99.90;;;;;;5034814;28;20228;-71
2021/11/18 03:20:41;;;;;;;10.52;8.75;;;9.00;99.90;;;;;;5035207;28;20543;-71
2021/11/18 03:23:09;;;;;;;11.27;9.15;;;9.00;99.90;;;;;;5034592;28;20200;-71
2021/11/18 03:25:37;;;;;;;10.52;8.65;;;8.80;99.90;;;;;;5033859;28;20201;-71
2021/11/18 03:28:05;;;;;;;11.57;9.60;;;8.80;99.90;;;;;;5036136;28;20765;-71
2021/11/18 03:30:38;;;;;;;12.57;9.20;;;8.80;99.90;;;;;;5038055;28;20307;-71
2021/11/18 03:33:08;;;;;;;12.48;9.68;;;8.70;99.90;;;;;;5038176;28;20208;-71
2021/11/18 03:35:35;;;;;;;12.43;9.38;;;8.60;99.90;;;;;;5037808;28;20208;-70
2021/11/18 03:38:02;;;;;;;10.52;9.20;;;8.60;99.90;;;;;;5037885;28;20262;-71
2021/11/18 03:40:30;;;;;;;11.30;9.15;;;8.60;99.90;;;;;;5037866;28;20578;-71
2021/11/18 03:42:58;;;;;;;11.98;9.75;;;8.50;99.90;;;;;;5037593;28;20208;-71
2021/11/18 03:45:27;;;;;;;10.40;9.07;;;8.50;99.90;;;;;;5037594;28;20204;-71
2021/11/18 03:47:56;;;;;;;10.35;9.02;;;8.60;99.90;;;;;;5037597;28;20224;-70
2021/11/18 03:50:23;;;;;;;10.27;8.70;;;8.70;99.90;;;;;;5037715;28;20677;-71
2021/11/18 03:52:49;;;;;;;12.20;9.07;;;8.80;99.90;;;;;;5037843;28;20581;-71
2021/11/18 03:55:18;;;;;;;11.80;9.82;;;8.90;99.90;;;;;;5037326;28;20658;-71
2021/11/18 03:57:46;;;;;;;10.00;9.00;;;8.80;99.90;;;;;;5037390;28;20228;-71
2021/11/18 04:00:16;;;;;;;11.07;9.52;;;8.70;99.90;;;;;;5037815;28;20207;-71
2021/11/18 04:02:43;;;;;;;11.68;9.32;;;8.70;99.90;;;;;;5038013;28;20688;-72
2021/11/18 04:05:11;;;;;;;11.80;9.57;;;8.60;99.90;;;;;;5037013;28;20215;-71
2021/11/18 04:07:40;;;;;;;12.52;9.65;;;8.50;99.90;;;;;;5037306;28;20224;-71
2021/11/18 04:10:09;;;;;;;11.85;9.73;;;8.50;99.90;;;;;;5037332;28;20255;-71
2021/11/18 04:12:37;;;;;;;10.23;8.70;;;8.60;99.90;;;;;;5037289;28;20210;-70
2021/11/18 04:15:05;;;;;;;12.18;9.10;;;8.50;99.90;;;;;;5037053;28;20212;-71
2021/11/18 04:17:32;;;;;;;11.90;9.55;;;8.40;99.90;;;;;;5036777;28;20238;-71
2021/11/18 04:19:59;;;;;;;11.85;9.82;;;8.30;99.90;;;;;;5037028;28;20315;-71
2021/11/18 04:22:28;;;;;;;12.70;9.32;;;8.20;99.90;;;;;;5036909;28;20204;-71
2021/11/18 04:24:54;;;;;;;15.73;11.25;;;8.10;99.90;;;;;;5036360;28;20214;-70
2021/11/18 04:27:21;;;;;;;13.75;10.40;;;8.10;99.90;;;;;;5036320;28;20204;-70
2021/11/18 04:29:48;;;;;;;13.05;10.38;;;8.00;99.90;;;;;;5037253;28;20295;-72
2021/11/18 04:32:18;;;;;;;15.00;10.38;;;8.10;99.90;;;;;;5037063;28;20585;-71
2021/11/18 04:34:45;;;;;;;14.25;10.23;;;8.10;99.90;;;;;;5037646;28;20208;-71
2021/11/18 04:37:12;;;;;;;15.25;11.23;;;8.10;99.90;;;;;;5036602;28;20208;-71
2021/11/18 04:39:41;;;;;;;12.60;10.07;;;8.10;99.90;;;;;;5037510;28;20231;-71
2021/11/18 04:42:09;;;;;;;13.32;10.27;;;8.30;99.90;;;;;;5037831;28;20295;-71
2021/11/18 04:44:36;;;;;;;11.55;9.00;;;8.40;99.90;;;;;;5037388;28;20267;-70
2021/11/18 04:47:06;;;;;;;13.85;10.70;;;8.40;99.90;;;;;;5037821;28;20200;-71
2021/11/18 04:49:33;;;;;;;13.75;10.45;;;8.50;99.90;;;;;;5037643;28;20203;-71
2021/11/18 04:51:59;;;;;;;11.07;9.02;;;8.50;99.90;;;;;;5037760;28;20295;-70
2021/11/18 04:54:26;;;;;;;12.10;10.60;;;8.60;99.90;;;;;;5037462;28;20258;-71
2021/11/18 04:56:54;;;;;;;13.45;10.85;;;8.60;99.90;;;;;;5036499;28;20294;-71
2021/11/18 04:59:21;;;;;;;13.02;10.20;;;8.60;99.90;;;;;;5035453;28;20258;-71
2021/11/18 05:01:48;;;;;;;12.93;10.43;;;8.60;99.90;;;;;;5035796;28;20204;-70
2021/11/18 05:04:15;;;;;;;17.25;11.40;;;8.70;99.90;;;;;;5035880;28;20298;-71
2021/11/18 05:06:42;;;;;;;13.73;10.68;;;8.60;99.90;;;;;;5036217;28;20666;-70
2021/11/18 05:09:11;;;;;;;12.95;10.25;;;8.60;99.90;;;;;;5037336;28;20228;-71
2021/11/18 05:11:39;;;;;;;13.30;11.13;;;8.70;99.90;;;;;;5037339;28;20211;-71
2021/11/18 05:14:08;;;;;;;12.82;10.15;;;8.80;99.90;;;;;;5036450;28;20566;-71
2021/11/18 05:16:35;;;;;;;14.15;10.60;;;9.00;99.90;;;;;;5036234;28;20577;-70
2021/11/18 05:19:02;;;;;;;12.95;10.27;;;9.10;99.90;;;;;;5035565;28;20327;-71
2021/11/18 05:21:29;;;;;;;15.15;10.98;;;9.10;99.90;;;;;;5036382;28;20247;-70
2021/11/18 05:23:58;;;;;;;10.88;9.73;;;9.20;99.90;;;;;;5036095;28;20200;-71
2021/11/18 05:26:26;;;;;;;14.50;11.55;;;9.20;99.90;;;;;;5036633;28;20208;-71
2021/11/18 05:28:54;;;;;;;12.15;10.32;;;9.10;99.90;;;;;;5036221;28;20220;-71
2021/11/18 05:31:24;;;;;;;15.13;10.95;;;9.00;99.90;;;;;;5036083;28;20276;-71
2021/11/18 05:33:51;;;;;;;14.68;11.55;;;8.90;99.90;;;;;;5036672;28;20290;-71
2021/11/18 05:36:18;;;;;;;14.55;11.05;;;8.90;99.90;;;;;;5036817;28;20211;-71
2021/11/18 05:38:46;;;;;;;13.20;10.85;;;8.90;99.90;;;;;;5036551;28;20225;-71
2021/11/18 05:41:14;;;;;;;15.52;10.88;;;9.00;99.90;;;;;;5036710;28;20211;-71
2021/11/18 05:43:42;;;;;;;13.82;11.50;;;9.00;99.90;;;;;;5036625;28;20200;-71
2021/11/18 05:46:10;;;;;;;14.07;11.13;;;9.10;99.90;;;;;;5036421;28;20669;-71
2021/11/18 05:48:38;;;;;;;15.27;11.32;;;9.20;99.90;;;;;;5037000;28;20216;-70
2021/11/18 05:51:06;;;;;;;11.90;10.27;;;9.20;99.90;;;;;;5036235;28;20211;-71
2021/11/18 05:53:36;;;;;;;14.27;11.10;;;9.20;99.90;;;;;;5036880;28;20214;-72
2021/11/18 05:56:06;;;;;;;13.10;11.02;;;9.10;99.90;;;;;;5035837;28;20298;-71
2021/11/18 05:58:34;;;;;;;12.77;9.43;;;9.10;99.90;;;;;;5035436;28;20238;-72
2021/11/18 06:01:01;;;;;;;15.25;11.27;;;9.10;99.90;;;;;;5035967;28;20215;-71
2021/11/18 06:03:28;;;;;;;13.50;10.25;;;9.00;99.90;;;;;;5036358;28;20248;-71
2021/11/18 06:05:56;;;;;;;14.20;11.07;;;9.00;99.90;;;;;;5035537;28;20200;-71
2021/11/18 06:08:23;;;;;;;15.55;10.75;;;9.00;99.90;;;;;;5035399;28;20242;-71
2021/11/18 06:10:51;;;;;;;13.80;10.80;;;9.10;99.90;;;;;;5035367;28;20204;-71
2021/11/18 06:13:18;;;;;;;17.35;10.90;;;9.20;99.90;;;;;;5035581;28;20200;-71
2021/11/18 06:15:45;;;;;;;16.10;10.90;;;9.20;99.90;;;;;;5035289;28;20212;-71
2021/11/18 06:18:13;;;;;;;15.60;11.05;;;9.20;99.90;;;;;;5035244;28;20232;-70
2021/11/18 06:20:40;;;;;;;11.32;9.60;;;9.20;99.90;;;;;;5035651;28;20713;-71
2021/11/18 06:23:10;;;;;;;13.23;9.63;;;9.30;99.90;;;;;;5034938;28;20208;-71
2021/11/18 06:25:38;;;;;;;14.80;11.27;;;9.30;99.90;;;;;;5034925;28;20272;-72
2021/11/18 06:28:07;;;;;;;12.38;10.05;;;9.20;99.90;;;;;;5034928;28;20590;-71
2021/11/18 06:30:48;;;;;;;13.20;10.63;;;9.00;99.90;;;;;;5035091;28;20200;-71
2021/11/18 06:33:15;;;;;;;13.43;10.27;;;9.00;99.90;;;;;;5035456;28;20208;-71
2021/11/18 06:35:42;;;;;;;14.48;11.30;;;8.80;99.90;;;;;;5035454;28;20295;-71
2021/11/18 06:38:10;;;;;;;15.23;11.55;;;8.50;99.90;;;;;;5035370;28;20316;-71
2021/11/18 06:40:37;;;;;;;15.90;11.75;;;8.40;99.90;;;;;;5035596;28;20231;-71
2021/11/18 06:43:05;;;;;;;18.75;12.18;;;8.20;99.90;;;;;;5035552;28;20205;-71
2021/11/18 06:45:38;;;;;;;15.95;11.38;;;8.20;99.90;;;;;;5035289;28;20208;-72
2021/11/18 06:48:05;;;;;;;14.88;11.27;;;8.40;99.90;;;;;;5035083;28;20224;-72
2021/11/18 06:50:32;;;;;;;16.20;12.48;;;8.60;99.90;;;;;;5035160;28;20204;-71
2021/11/18 06:53:00;;;;;;;14.70;11.77;;;8.70;99.90;;;;;;5034883;28;20200;-71
2021/11/18 06:55:28;;;;;;;16.02;12.13;;;8.70;99.90;;;;;;5034636;28;20555;-71
2021/11/18 06:57:55;;;;;;;15.90;11.80;;;8.80;99.90;;;;;;5034708;28;20639;-71
2021/11/18 07:00:22;;;;;;;19.35;13.38;;;8.90;99.90;;;;;;5034282;28;20224;-71
2021/11/18 07:02:49;;;;;;;18.17;13.23;;;8.90;99.90;;;;;;5033710;28;20220;-71
2021/11/18 07:05:16;;;;;;;19.60;13.90;;;8.90;99.90;;;;;;5034461;28;20547;-71
2021/11/18 07:07:43;;;;;;;19.85;14.55;;;8.80;99.90;;;;;;5034476;28;20228;-71
2021/11/18 07:10:11;;;;;;;17.85;14.18;;;8.80;99.90;;;;;;5033997;28;20746;-71
2021/11/18 07:12:40;;;;;;;19.80;13.00;;;8.90;99.90;;;;;;5034003;28;20214;-71
2021/11/18 07:15:09;;;;;;;17.38;12.50;;;8.90;99.90;;;;;;5033734;28;20629;-71
2021/11/18 07:17:35;;;;;;;18.17;12.20;;;8.90;99.90;;;;;;5033951;28;20235;-72
2021/11/18 07:20:03;;;;;;;19.00;12.63;;;9.00;99.90;;;;;;5034554;28;20227;-71
2021/11/18 07:22:30;;;;;;;18.27;12.40;;;9.10;99.90;;;;;;5034400;28;20247;-71
2021/11/18 07:24:58;;;;;;;19.92;12.80;;;9.00;99.90;;;;;;5033911;28;20678;-72
2021/11/18 07:27:24;;;;;;;17.67;12.38;;;9.10;99.90;;;;;;5034438;28;20207;-71
2021/11/18 07:29:53;;;;;;;18.55;12.90;;;9.10;99.90;;;;;;5034255;28;20200;-72
2021/11/18 07:32:20;;;;;;;19.27;13.02;;;9.10;99.90;;;;;;5034446;28;20203;-71
2021/11/18 07:34:47;;;;;;;19.95;14.18;;;8.90;99.90;;;;;;5033999;28;20204;-72
2021/11/18 07:37:14;;;;;;;23.80;16.08;;;8.70;99.90;;;;;;5034056;28;20573;-70
2021/11/18 07:39:40;;;;;;;24.90;16.55;;;8.60;99.90;;;;;;5034050;28;20258;-71
2021/11/18 07:42:07;;;;;;;20.70;15.07;;;8.50;99.90;;;;;;5034152;28;20287;-72
2021/11/18 07:44:34;;;;;;;22.52;16.10;;;8.40;99.90;;;;;;5033725;28;20208;-72
2021/11/18 07:47:02;;;;;;;24.40;15.68;;;8.50;99.90;;;;;;5034149;28;20243;-72
2021/11/18 07:49:29;;;;;;;26.25;16.73;;;8.60;99.90;;;;;;5033699;28;20224;-72
2021/11/18 07:51:56;;;;;;;23.88;15.57;;;8.80;99.90;;;;;;5034020;28;20296;-72
2021/11/18 07:54:24;;;;;;;21.20;15.23;;;8.80;99.90;;;;;;5033506;28;20298;-72
2021/11/18 07:56:51;;;;;;;22.63;16.23;;;8.80;99.90;;;;;;5034184;28;20211;-71
2021/11/18 07:59:19;;;;;;;21.23;15.65;;;8.70;99.90;;;;;;5033740;28;20228;-71
2021/11/18 08:01:46;;;;;;;23.10;16.63;;;8.70;99.90;;;;;;5034046;28;20290;-71
2021/11/18 08:04:15;;;;;;;23.10;16.45;;;8.60;99.90;;;;;;5034110;28;20777;-72
2021/11/18 08:06:43;;;;;;;26.08;17.13;;;8.50;99.90;;;;;;5033978;28;20302;-70
2021/11/18 08:09:11;;;;;;;20.95;14.98;;;8.40;99.90;;;;;;5033995;28;20235;-72
2021/11/18 08:11:41;;;;;;;24.80;17.15;;;8.40;99.90;;;;;;5033755;28;20239;-71
2021/11/18 08:14:10;;;;;;;19.90;16.00;;;8.40;99.90;;;;;;5036057;28;20294;-72
2021/11/18 08:16:36;;;;;;;22.65;15.98;;;8.60;99.90;;;;;;5037192;28;20270;-72
2021/11/18 08:19:05;;;;;;;20.85;14.65;;;8.70;99.90;;;;;;5037520;28;20314;-72
2021/11/18 08:21:35;;;;;;;20.40;14.15;;;8.90;99.90;;;;;;5037168;28;20215;-71
2021/11/18 08:24:02;;;;;;;19.77;14.10;;;9.00;99.90;;;;;;5037792;28;20204;-72
2021/11/18 08:26:30;;;;;;;21.02;13.65;;;8.90;99.90;;;;;;5038508;28;20291;-71
2021/11/18 08:28:57;;;;;;;24.23;14.15;;;8.80;99.90;;;;;;5038448;28;20227;-71
2021/11/18 08:31:25;;;;;;;18.95;14.20;;;8.80;99.90;;;;;;5037848;28;20204;-71
2021/11/18 08:33:53;;;;;;;22.08;14.88;;;8.80;99.90;;;;;;5037287;28;20204;-71
2021/11/18 08:36:20;;;;;;;21.48;13.75;;;8.90;99.90;;;;;;5037704;28;20228;-71
2021/11/18 08:38:49;;;;;;;24.85;15.18;;;8.90;99.90;;;;;;5037903;28;20582;-70
2021/11/18 08:41:17;;;;;;;20.00;13.73;;;8.90;99.90;;;;;;5037618;28;20227;-71
2021/11/18 08:43:46;;;;;;;21.05;13.48;;;9.10;99.90;;;;;;5037584;28;20204;-71
2021/11/18 08:46:16;;;;;;;20.15;13.18;;;9.10;99.90;;;;;;5037194;28;20577;-71
2021/11/18 08:48:43;;;;;;;23.92;12.52;;;9.00;99.90;;;;;;5037911;28;20231;-70
2021/11/18 08:51:11;;;;;;;21.33;13.57;;;9.00;99.90;;;;;;5037653;28;20206;-70
2021/11/18 08:53:41;;;;;;;18.00;12.40;;;9.00;99.90;;;;;;5037819;28;20211;-71
2021/11/18 08:56:09;;;;;;;19.75;13.20;;;9.10;99.90;;;;;;5036934;28;20204;-71
2021/11/18 08:58:39;;;;;;;18.80;12.55;;;9.20;99.90;;;;;;5036459;28;20230;-72
2021/11/18 09:01:09;;;;;;;21.50;13.45;;;9.40;99.90;;;;;;5036602;28;20246;-70
2021/11/18 09:03:37;;;;;;;20.25;13.15;;;9.50;99.90;;;;;;5036365;28;20205;-71
2021/11/18 09:06:07;;;;;;;25.70;12.50;;;9.50;99.90;;;;;;5036126;28;20287;-71
2021/11/18 09:08:34;;;;;;;20.42;12.90;;;9.60;99.90;;;;;;5036474;28;20322;-71
2021/11/18 09:11:01;;;;;;;23.63;12.15;;;9.60;99.90;;;;;;5036647;28;20227;-71
2021/11/18 09:13:30;;;;;;;21.80;12.55;;;9.60;99.90;;;;;;5036286;28;20238;-70
2021/11/18 09:15:57;;;;;;;21.17;12.10;;;9.70;99.90;;;;;;5035992;28;20212;-71
2021/11/18 09:18:24;;;;;;;20.52;12.27;;;9.70;99.90;;;;;;5036280;28;20234;-71
2021/11/18 09:20:54;;;;;;;21.70;12.60;;;9.80;99.90;;;;;;5036573;28;20232;-71
2021/11/18 09:23:25;;;;;;;18.02;12.68;;;9.80;99.90;;;;;;5036096;28;20207;-71
2021/11/18 09:25:52;;;;;;;19.90;12.77;;;9.80;99.90;;;;;;5034968;28;20207;-72
2021/11/18 09:28:22;;;;;;;22.23;12.90;;;9.70;99.90;;;;;;5036244;28;20224;-71
2021/11/18 09:30:56;;;;;;;21.88;12.65;;;9.60;99.90;;;;;;5036399;28;20279;-72
2021/11/18 09:33:24;;;;;;;20.73;13.60;;;9.70;99.90;;;;;;5036253;28;20210;-72
2021/11/18 09:35:54;;;;;;;21.33;12.52;;;9.90;99.90;;;;;;5027309;28;20263;-70
2021/11/18 09:38:23;;;;;;;19.80;12.70;;;10.00;99.90;;;;;;5033827;28;20223;-72
2021/11/18 09:40:53;;;;;;;21.85;13.38;;;10.10;99.90;;;;;;5033413;28;20246;-70
2021/11/18 09:43:59;;;;;;;22.98;13.77;;;10.10;99.90;;;;;;5033653;28;20741;-70
2021/11/18 09:46:58;;;;;;;17.92;13.18;;;10.10;99.90;;;;;;5033683;28;20262;-70
2021/11/18 09:49:46;;;;;;;19.77;13.18;;;10.10;99.90;;;;;;5033394;28;20585;-71
2021/11/18 09:52:24;;;;;;;19.38;12.38;;;10.00;99.90;;;;;;5033526;28;20200;-70
2021/11/18 09:55:00;;;;;;;20.50;13.73;;;10.00;99.90;;;;;;5033549;28;20292;-70
2021/11/18 09:57:44;;;;;;;22.35;14.45;;;10.10;99.90;;;;;;5033266;28;20234;-71
2021/11/18 10:00:17;;;;;;;24.48;13.02;;;10.10;99.90;;;;;;5033169;28;20224;-70
2021/11/18 10:03:03;;;;;;;22.25;12.88;;;10.20;99.90;;;;;;5033134;28;20208;-71
2021/11/18 10:05:35;;;;;;;19.17;13.10;;;10.20;99.90;;;;;;5033602;28;20291;-70
2021/11/18 10:08:07;;;;;;;21.90;13.82;;;10.30;99.90;;;;;;5033528;28;20311;-71
2021/11/18 10:10:40;;;;;;;21.42;13.07;;;10.30;99.90;;;;;;5033598;28;20235;-70
2021/11/18 10:13:28;;;;;;;20.80;12.93;;;10.30;99.90;;;;;;5033273;28;20206;-69
2021/11/18 10:16:00;;;;;;;21.27;12.27;;;10.40;99.90;;;;;;5033147;28;20307;-70
2021/11/18 10:18:32;;;;;;;18.58;12.20;;;10.60;99.90;;;;;;5033118;28;20231;-70
2021/11/18 10:21:03;;;;;;;19.73;11.70;;;10.70;99.90;;;;;;5033331;28;20315;-69
2021/11/18 10:23:31;;;;;;;21.20;12.43;;;10.80;99.90;;;;;;5033346;28;20204;-69
2021/11/18 10:26:00;;;;;;;18.73;12.73;;;10.90;99.90;;;;;;5033184;28;20242;-71
2021/11/18 10:28:36;;;;;;;18.75;12.25;;;10.90;99.90;;;;;;5032768;28;20463;-70
2021/11/18 10:31:22;;;;;;;20.35;12.15;;;11.10;99.90;;;;;;5033480;28;20210;-70
2021/11/18 10:33:55;;;;;;;15.75;11.18;;;11.30;99.90;;;;;;5033001;28;20754;-70
2021/11/18 10:36:43;;;;;;;18.60;11.32;;;11.40;99.90;;;;;;5033297;28;20486;-71
2021/11/18 10:39:19;;;;;;;15.55;9.77;;;11.60;99.90;;;;;;5032953;28;20230;-68
2021/11/18 10:41:53;;;;;;;18.85;8.48;;;11.60;99.90;;;;;;5032924;28;20215;-70
2021/11/18 10:44:23;;;;;;;15.77;9.75;;;11.60;99.90;;;;;;5032923;28;20200;-70
2021/11/18 10:46:58;;;;;;;13.27;9.10;;;11.60;99.90;;;;;;5032993;28;20204;-69
2021/11/18 10:49:36;;;;;;;17.27;10.25;;;11.70;99.90;;;;;;5032778;28;20314;-70
2021/11/18 10:52:06;;;;;;;14.65;9.35;;;11.80;99.90;;;;;;5033169;28;20685;-70
2021/11/18 10:54:43;;;;;;;16.00;9.45;;;11.80;99.90;;;;;;5032838;28;20293;-70
2021/11/18 10:57:16;;;;;;;15.60;9.23;;;11.90;99.90;;;;;;5033173;28;20204;-71
2021/11/18 10:59:45;;;;;;;18.10;9.02;;;11.80;99.90;;;;;;5032960;28;20275;-71
2021/11/18 11:02:19;;;;;;;14.35;9.63;;;11.90;99.90;;;;;;5033013;28;20227;-71
2021/11/18 11:04:49;;;;;;;14.07;8.38;;;11.90;99.90;;;;;;5032500;28;20203;-71
2021/11/18 11:07:30;;;;;;;12.50;8.40;;;11.90;99.90;;;;;;5032532;28;20607;-70
2021/11/18 11:09:57;;;;;;;14.07;8.82;;;11.60;99.90;;;;;;5032395;28;20294;-71
2021/11/18 11:12:28;;;;;;;12.73;9.52;;;11.40;99.90;;;;;;5033089;28;20200;-70
2021/11/18 11:15:14;;;;;;;12.50;8.90;;;11.40;99.90;;;;;;5032823;28;20211;-70
2021/11/18 11:17:57;;;;;;;16.25;9.32;;;11.40;99.90;;;;;;5032723;28;20298;-70
2021/11/18 11:20:34;;;;;;;14.65;9.50;;;11.10;99.90;;;;;;5032660;28;20579;-71
2021/11/18 11:23:08;;;;;;;15.63;9.93;;;11.10;99.90;;;;;;5032599;28;20200;-71
2021/11/18 11:26:09;;;;;;;20.85;11.25;;;11.20;99.90;;;;;;5032965;28;20207;-70
2021/11/18 11:28:55;;;;;;;21.60;12.07;;;11.30;99.90;;;;;;5032471;28;20586;-71
2021/11/18 11:31:42;;;;;;;19.50;10.85;;;11.30;99.90;;;;;;5032544;28;20733;-71
2021/11/18 11:34:29;;;;;;;17.67;11.55;;;11.40;99.90;;;;;;5032232;28;20298;-70
2021/11/18 11:37:05;;;;;;;17.55;11.52;;;11.40;99.90;;;;;;5032412;28;20262;-70
2021/11/18 11:39:37;;;;;;;17.42;10.13;;;11.40;99.90;;;;;;5032479;28;20220;-70
2021/11/18 11:42:46;;;;;;;19.77;11.27;;;11.50;99.90;;;;;;5032835;28;20224;-71
2021/11/18 11:45:19;;;;;;;16.73;9.93;;;11.50;99.90;;;;;;5003113;28;20206;-70
2021/11/18 11:48:02;;;;;;;18.27;11.35;;;11.50;99.90;;;;;;5032378;28;20230;-71
2021/11/18 11:50:39;;;;;;;16.02;9.90;;;11.60;99.90;;;;;;5035949;28;20292;-72
2021/11/18 11:53:13;;;;;;;18.27;11.13;;;11.70;99.90;;;;;;5036019;28;20219;-70
2021/11/18 11:55:54;;;;;;;21.65;10.82;;;11.70;99.90;;;;;;5035808;28;20231;-72
2021/11/18 11:58:26;;;;;;;17.67;12.30;;;11.70;99.90;;;;;;5035886;28;20318;-71
2021/11/18 12:01:08;;;;;;;22.60;11.93;;;11.60;99.90;;;;;;5035701;28;20708;-71
2021/11/18 12:03:41;;;;;;;18.75;12.02;;;11.70;99.90;;;;;;5036281;28;20206;-70
2021/11/18 12:06:14;;;;;;;14.90;11.55;;;11.60;99.90;;;;;;5035548;28;20223;-71
2021/11/18 12:08:48;;;;;;;19.05;12.32;;;11.60;99.90;;;;;;5036011;28;20314;-71
2021/11/18 12:11:27;;;;;;;18.92;11.23;;;11.50;99.90;;;;;;5035985;28;20551;-71
2021/11/18 12:13:58;;;;;;;18.55;12.07;;;11.60;99.90;;;;;;5035518;28;20658;-70
2021/11/18 12:16:30;;;;;;;20.30;12.65;;;11.50;99.90;;;;;;5035592;28;20228;-70
2021/11/18 12:19:01;;;;;;;19.35;12.95;;;11.50;99.90;;;;;;5035295;28;20230;-70
2021/11/18 12:21:31;;;;;;;18.35;10.93;;;11.40;99.90;;;;;;5035512;28;20710;-71
2021/11/18 12:24:19;;;;;;;16.65;12.23;;;11.40;99.90;;;;;;5035495;28;20200;-70
2021/11/18 12:26:54;;;;;;;14.38;10.60;;;11.30;99.90;;;;;;5035293;28;20396;-71
2021/11/18 12:29:40;;;;;;;15.63;10.35;;;11.30;99.90;;;;;;5035225;28;20224;-70
2021/11/18 12:32:32;;;;;;;14.77;9.43;;;11.20;99.90;;;;;;5035699;28;20306;-69
2021/11/18 12:35:04;;;;;;;16.58;10.00;;;11.20;99.90;;;;;;5035024;28;20207;-70
2021/11/18 12:37:38;;;;;;;17.00;10.05;;;11.30;99.90;;;;;;5034997;28;20702;-69
2021/11/18 12:40:32;;;;;;;14.85;9.23;;;11.30;99.90;;;;;;5035183;28;20569;-69
2021/11/18 12:43:11;;;;;;;12.00;8.93;;;11.40;99.90;;;;;;5034977;28;20206;-69
2021/11/18 12:45:50;;;;;;;11.75;9.00;;;11.40;99.90;;;;;;5034916;28;20303;-70
2021/11/18 12:48:21;;;;;;;14.75;9.77;;;11.40;99.90;;;;;;5034720;28;20698;-69
2021/11/18 12:51:23;;;;;;;15.85;9.05;;;11.40;99.90;;;;;;5034918;28;20547;-70
2021/11/18 12:53:57;;;;;;;12.35;8.88;;;11.60;99.90;;;;;;5002596;28;20291;-70